sensor_id;sensor_type;location;lat;lon;timestamp;temperature;humidity
24636;DHT22;12772;49.794;10.024;2023-05-20T00:01:43;17.30;41.60
24636;DHT22;12772;49.794;10.024;2023-05-20T00:05:45;17.30;41.70
24636;DHT22;12772;49.794;10.024;2023-05-20T00:09:47;17.30;41.70
24636;DHT22;12772;49.794;10.024;2023-05-20T00:13:49;17.30;42.00
24636;DHT22;12772;49.794;10.024;2023-05-20T00:17:51;17.20;41.90
24636;DHT22;12772;49.794;10.024;2023-05-20T00:21:53;17.20;42.10
24636;DHT22;12772;49.794;10.024;2023-05-20T00:25:57;17.20;42.40
24636;DHT22;12772;49.794;10.024;2023-05-20T00:29:59;17.20;42.60
24636;DHT22;12772;49.794;10.024;2023-05-20T00:34:01;17.10;42.60
24636;DHT22;12772;49.794;10.024;2023-05-20T00:38:03;17.10;42.90
24636;DHT22;12772;49.794;10.024;2023-05-20T00:42:05;17.10;43.00
24636;DHT22;12772;49.794;10.024;2023-05-20T00:46:07;17.10;43.10
24636;DHT22;12772;49.794;10.024;2023-05-20T00:50:10;17.00;43.10
24636;DHT22;12772;49.794;10.024;2023-05-20T00:54:12;17.00;43.20
24636;DHT22;12772;49.794;10.024;2023-05-20T00:58:14;17.00;43.30
24636;DHT22;12772;49.794;10.024;2023-05-20T01:02:16;17.00;43.50
24636;DHT22;12772;49.794;10.024;2023-05-20T01:06:18;17.00;43.60
24636;DHT22;12772;49.794;10.024;2023-05-20T01:10:23;17.00;43.60
24636;DHT22;12772;49.794;10.024;2023-05-20T01:14:29;17.00;43.70
24636;DHT22;12772;49.794;10.024;2023-05-20T01:18:32;17.00;43.80
24636;DHT22;12772;49.794;10.024;2023-05-20T01:22:37;17.00;43.80
24636;DHT22;12772;49.794;10.024;2023-05-20T01:26:39;17.00;44.00
24636;DHT22;12772;49.794;10.024;2023-05-20T01:30:50;17.00;43.80
24636;DHT22;12772;49.794;10.024;2023-05-20T01:34:53;17.00;43.90
24636;DHT22;12772;49.794;10.024;2023-05-20T01:38:56;17.00;44.00
24636;DHT22;12772;49.794;10.024;2023-05-20T01:43:00;17.10;44.10
24636;DHT22;12772;49.794;10.024;2023-05-20T01:47:02;17.10;44.20
24636;DHT22;12772;49.794;10.024;2023-05-20T01:51:04;17.10;44.10
24636;DHT22;12772;49.794;10.024;2023-05-20T01:55:06;17.10;44.10
24636;DHT22;12772;49.794;10.024;2023-05-20T01:59:09;17.10;44.00
24636;DHT22;12772;49.794;10.024;2023-05-20T02:03:11;17.10;44.20
24636;DHT22;12772;49.794;10.024;2023-05-20T02:07:13;17.10;44.30
24636;DHT22;12772;49.794;10.024;2023-05-20T02:11:16;17.10;44.50
24636;DHT22;12772;49.794;10.024;2023-05-20T02:15:18;17.10;44.70
24636;DHT22;12772;49.794;10.024;2023-05-20T02:19:20;17.10;44.70
24636;DHT22;12772;49.794;10.024;2023-05-20T02:23:23;17.10;44.80
24636;DHT22;12772;49.794;10.024;2023-05-20T02:27:25;17.10;44.80
24636;DHT22;12772;49.794;10.024;2023-05-20T02:31:27;17.10;44.90
24636;DHT22;12772;49.794;10.024;2023-05-20T02:35:29;17.10;44.90
24636;DHT22;12772;49.794;10.024;2023-05-20T02:39:31;17.10;44.90
24636;DHT22;12772;49.794;10.024;2023-05-20T02:43:33;17.10;45.00
24636;DHT22;12772;49.794;10.024;2023-05-20T02:47:36;17.10;44.90
24636;DHT22;12772;49.794;10.024;2023-05-20T02:51:39;17.10;45.00
24636;DHT22;12772;49.794;10.024;2023-05-20T02:55:41;17.10;45.30
24636;DHT22;12772;49.794;10.024;2023-05-20T02:59:44;17.10;45.20
24636;DHT22;12772;49.794;10.024;2023-05-20T03:03:47;17.10;45.30
24636;DHT22;12772;49.794;10.024;2023-05-20T03:07:48;17.20;45.20
24636;DHT22;12772;49.794;10.024;2023-05-20T03:11:50;17.20;45.30
24636;DHT22;12772;49.794;10.024;2023-05-20T03:15:53;17.10;45.40
24636;DHT22;12772;49.794;10.024;2023-05-20T03:19:55;17.10;45.50
24636;DHT22;12772;49.794;10.024;2023-05-20T03:23:57;17.10;45.70
24636;DHT22;12772;49.794;10.024;2023-05-20T03:27:59;17.10;45.60
24636;DHT22;12772;49.794;10.024;2023-05-20T03:32:01;17.10;45.90
24636;DHT22;12772;49.794;10.024;2023-05-20T03:36:03;17.10;46.00
24636;DHT22;12772;49.794;10.024;2023-05-20T03:40:07;17.00;46.10
24636;DHT22;12772;49.794;10.024;2023-05-20T03:44:10;17.00;46.20
24636;DHT22;12772;49.794;10.024;2023-05-20T03:48:12;17.00;46.40
24636;DHT22;12772;49.794;10.024;2023-05-20T03:52:14;16.90;46.50
24636;DHT22;12772;49.794;10.024;2023-05-20T03:56:16;16.90;46.50
24636;DHT22;12772;49.794;10.024;2023-05-20T04:00:18;17.00;46.70
24636;DHT22;12772;49.794;10.024;2023-05-20T04:04:20;17.00;46.70
24636;DHT22;12772;49.794;10.024;2023-05-20T04:08:22;17.00;46.80
24636;DHT22;12772;49.794;10.024;2023-05-20T04:12:25;16.90;46.70
24636;DHT22;12772;49.794;10.024;2023-05-20T04:16:30;16.90;46.80
24636;DHT22;12772;49.794;10.024;2023-05-20T04:20:32;16.90;46.80
24636;DHT22;12772;49.794;10.024;2023-05-20T04:24:34;17.00;46.90
24636;DHT22;12772;49.794;10.024;2023-05-20T04:28:38;17.00;47.00
24636;DHT22;12772;49.794;10.024;2023-05-20T04:32:41;16.90;47.00
24636;DHT22;12772;49.794;10.024;2023-05-20T04:36:43;16.90;47.10
24636;DHT22;12772;49.794;10.024;2023-05-20T04:40:45;16.90;47.30
24636;DHT22;12772;49.794;10.024;2023-05-20T04:44:47;16.90;47.50
24636;DHT22;12772;49.794;10.024;2023-05-20T04:48:49;16.90;47.50
24636;DHT22;12772;49.794;10.024;2023-05-20T04:52:51;16.90;47.70
24636;DHT22;12772;49.794;10.024;2023-05-20T04:56:53;16.90;47.90
24636;DHT22;12772;49.794;10.024;2023-05-20T05:00:56;16.80;47.80
24636;DHT22;12772;49.794;10.024;2023-05-20T05:04:58;16.80;48.00
24636;DHT22;12772;49.794;10.024;2023-05-20T05:09:00;16.80;48.30
24636;DHT22;12772;49.794;10.024;2023-05-20T05:13:02;16.90;48.50
24636;DHT22;12772;49.794;10.024;2023-05-20T05:17:05;16.90;48.70
24636;DHT22;12772;49.794;10.024;2023-05-20T05:21:08;17.00;48.90
24636;DHT22;12772;49.794;10.024;2023-05-20T05:25:11;17.00;48.70
24636;DHT22;12772;49.794;10.024;2023-05-20T05:29:13;17.00;48.70
24636;DHT22;12772;49.794;10.024;2023-05-20T05:33:16;17.10;48.80
24636;DHT22;12772;49.794;10.024;2023-05-20T05:37:18;17.10;48.70
24636;DHT22;12772;49.794;10.024;2023-05-20T05:41:20;17.10;49.40
24636;DHT22;12772;49.794;10.024;2023-05-20T05:45:23;17.10;48.70
24636;DHT22;12772;49.794;10.024;2023-05-20T05:49:25;17.10;48.70
24636;DHT22;12772;49.794;10.024;2023-05-20T05:53:27;17.20;48.80
24636;DHT22;12772;49.794;10.024;2023-05-20T05:57:29;17.20;48.70
24636;DHT22;12772;49.794;10.024;2023-05-20T06:01:31;17.30;48.80
24636;DHT22;12772;49.794;10.024;2023-05-20T06:05:33;17.30;48.70
24636;DHT22;12772;49.794;10.024;2023-05-20T06:09:35;17.30;48.60
24636;DHT22;12772;49.794;10.024;2023-05-20T06:13:37;17.30;48.60
24636;DHT22;12772;49.794;10.024;2023-05-20T06:17:39;17.30;48.30
24636;DHT22;12772;49.794;10.024;2023-05-20T06:21:41;17.30;48.40
24636;DHT22;12772;49.794;10.024;2023-05-20T06:25:43;17.20;48.50
24636;DHT22;12772;49.794;10.024;2023-05-20T06:29:45;17.20;48.80
24636;DHT22;12772;49.794;10.024;2023-05-20T06:33:47;17.20;48.90
24636;DHT22;12772;49.794;10.024;2023-05-20T06:37:49;17.20;48.90
24636;DHT22;12772;49.794;10.024;2023-05-20T06:41:51;17.30;49.20
24636;DHT22;12772;49.794;10.024;2023-05-20T06:45:53;17.30;49.30
24636;DHT22;12772;49.794;10.024;2023-05-20T06:49:55;17.40;50.10
24636;DHT22;12772;49.794;10.024;2023-05-20T06:53:57;17.50;50.20
24636;DHT22;12772;49.794;10.024;2023-05-20T06:57:59;17.70;49.80
24636;DHT22;12772;49.794;10.024;2023-05-20T07:02:02;17.90;49.30
24636;DHT22;12772;49.794;10.024;2023-05-20T07:06:04;18.10;49.00
24636;DHT22;12772;49.794;10.024;2023-05-20T07:10:07;18.20;48.20
24636;DHT22;12772;49.794;10.024;2023-05-20T07:14:09;18.30;48.10
24636;DHT22;12772;49.794;10.024;2023-05-20T07:18:11;18.30;47.90
24636;DHT22;12772;49.794;10.024;2023-05-20T07:22:13;18.40;47.60
24636;DHT22;12772;49.794;10.024;2023-05-20T07:26:15;18.60;47.30
24636;DHT22;12772;49.794;10.024;2023-05-20T07:30:18;18.60;46.90
24636;DHT22;12772;49.794;10.024;2023-05-20T07:34:20;18.70;46.90
24636;DHT22;12772;49.794;10.024;2023-05-20T07:38:22;18.80;47.30
24636;DHT22;12772;49.794;10.024;2023-05-20T07:42:24;18.90;47.00
24636;DHT22;12772;49.794;10.024;2023-05-20T07:46:26;19.10;47.20
24636;DHT22;12772;49.794;10.024;2023-05-20T07:50:28;19.20;46.30
24636;DHT22;12772;49.794;10.024;2023-05-20T07:54:30;19.40;46.20
24636;DHT22;12772;49.794;10.024;2023-05-20T07:58:32;19.50;45.50
24636;DHT22;12772;49.794;10.024;2023-05-20T08:02:34;19.60;45.40
24636;DHT22;12772;49.794;10.024;2023-05-20T08:06:36;19.80;45.20
24636;DHT22;12772;49.794;10.024;2023-05-20T08:10:39;19.90;44.90
24636;DHT22;12772;49.794;10.024;2023-05-20T08:14:41;20.00;44.70
24636;DHT22;12772;49.794;10.024;2023-05-20T08:18:43;20.10;44.00
24636;DHT22;12772;49.794;10.024;2023-05-20T08:22:45;20.20;43.50
24636;DHT22;12772;49.794;10.024;2023-05-20T08:26:48;20.30;43.70
24636;DHT22;12772;49.794;10.024;2023-05-20T08:30:50;20.40;42.80
24636;DHT22;12772;49.794;10.024;2023-05-20T08:34:52;20.50;42.50
24636;DHT22;12772;49.794;10.024;2023-05-20T08:38:54;20.50;42.70
24636;DHT22;12772;49.794;10.024;2023-05-20T08:42:56;20.60;43.10
24636;DHT22;12772;49.794;10.024;2023-05-20T08:46:59;20.70;42.60
24636;DHT22;12772;49.794;10.024;2023-05-20T08:51:02;20.80;42.20
24636;DHT22;12772;49.794;10.024;2023-05-20T08:55:06;20.90;42.20
24636;DHT22;12772;49.794;10.024;2023-05-20T08:59:09;21.00;42.40
24636;DHT22;12772;49.794;10.024;2023-05-20T09:03:11;21.10;42.50
24636;DHT22;12772;49.794;10.024;2023-05-20T09:07:13;21.20;42.20
24636;DHT22;12772;49.794;10.024;2023-05-20T09:11:16;21.30;41.80
24636;DHT22;12772;49.794;10.024;2023-05-20T09:15:18;21.40;41.60
24636;DHT22;12772;49.794;10.024;2023-05-20T09:19:23;21.50;41.70
24636;DHT22;12772;49.794;10.024;2023-05-20T09:23:25;21.60;41.80
24636;DHT22;12772;49.794;10.024;2023-05-20T09:27:30;21.70;41.40
24636;DHT22;12772;49.794;10.024;2023-05-20T09:31:33;21.80;41.00
24636;DHT22;12772;49.794;10.024;2023-05-20T09:35:35;21.90;41.20
24636;DHT22;12772;49.794;10.024;2023-05-20T09:40:00;22.00;40.30
24636;DHT22;12772;49.794;10.024;2023-05-20T09:44:04;22.10;40.60
24636;DHT22;12772;49.794;10.024;2023-05-20T09:48:08;22.10;39.70
24636;DHT22;12772;49.794;10.024;2023-05-20T09:52:14;22.20;39.70
24636;DHT22;12772;49.794;10.024;2023-05-20T09:56:19;22.20;39.90
24636;DHT22;12772;49.794;10.024;2023-05-20T10:00:22;22.20;40.30
24636;DHT22;12772;49.794;10.024;2023-05-20T10:04:25;22.40;40.90
24636;DHT22;12772;49.794;10.024;2023-05-20T10:21:40;22.80;38.80
24636;DHT22;12772;49.794;10.024;2023-05-20T10:25:50;22.90;37.70
24636;DHT22;12772;49.794;10.024;2023-05-20T10:29:54;22.90;37.90
24636;DHT22;12772;49.794;10.024;2023-05-20T10:33:57;22.90;37.40
24636;DHT22;12772;49.794;10.024;2023-05-20T10:38:11;22.90;37.70
24636;DHT22;12772;49.794;10.024;2023-05-20T10:42:13;23.10;37.80
24636;DHT22;12772;49.794;10.024;2023-05-20T10:46:18;23.20;37.30
24636;DHT22;12772;49.794;10.024;2023-05-20T10:50:34;23.20;37.20
24636;DHT22;12772;49.794;10.024;2023-05-20T10:54:42;23.30;37.80
24636;DHT22;12772;49.794;10.024;2023-05-20T10:58:46;23.50;37.40
24636;DHT22;12772;49.794;10.024;2023-05-20T11:02:49;23.60;36.20
24636;DHT22;12772;49.794;10.024;2023-05-20T11:06:51;23.70;36.70
24636;DHT22;12772;49.794;10.024;2023-05-20T11:10:56;23.80;36.10
24636;DHT22;12772;49.794;10.024;2023-05-20T11:14:58;23.90;36.00
24636;DHT22;12772;49.794;10.024;2023-05-20T11:19:00;24.10;35.00
24636;DHT22;12772;49.794;10.024;2023-05-20T11:23:04;24.20;35.50
24636;DHT22;12772;49.794;10.024;2023-05-20T11:27:06;24.30;34.80
24636;DHT22;12772;49.794;10.024;2023-05-20T11:31:09;24.50;35.60
24636;DHT22;12772;49.794;10.024;2023-05-20T11:35:24;24.70;35.10
24636;DHT22;12772;49.794;10.024;2023-05-20T11:39:29;24.90;33.90
24636;DHT22;12772;49.794;10.024;2023-05-20T11:43:32;25.00;33.20
24636;DHT22;12772;49.794;10.024;2023-05-20T11:47:34;25.10;33.10
24636;DHT22;12772;49.794;10.024;2023-05-20T11:51:37;25.10;32.80
24636;DHT22;12772;49.794;10.024;2023-05-20T11:55:56;25.10;32.50
24636;DHT22;12772;49.794;10.024;2023-05-20T11:59:59;25.20;32.40
24636;DHT22;12772;49.794;10.024;2023-05-20T12:04:01;25.20;32.60
24636;DHT22;12772;49.794;10.024;2023-05-20T12:08:03;25.30;32.70
24636;DHT22;12772;49.794;10.024;2023-05-20T12:12:06;25.30;32.60
24636;DHT22;12772;49.794;10.024;2023-05-20T12:16:08;25.40;31.30
24636;DHT22;12772;49.794;10.024;2023-05-20T12:20:12;25.40;31.10
24636;DHT22;12772;49.794;10.024;2023-05-20T12:24:14;25.40;32.20
24636;DHT22;12772;49.794;10.024;2023-05-20T12:28:16;25.40;32.50
24636;DHT22;12772;49.794;10.024;2023-05-20T12:32:18;25.40;32.70
24636;DHT22;12772;49.794;10.024;2023-05-20T12:36:20;25.50;32.40
24636;DHT22;12772;49.794;10.024;2023-05-20T12:40:22;25.50;33.50
24636;DHT22;12772;49.794;10.024;2023-05-20T12:44:25;25.50;32.20
24636;DHT22;12772;49.794;10.024;2023-05-20T12:48:27;25.70;32.40
24636;DHT22;12772;49.794;10.024;2023-05-20T12:52:29;25.60;32.10
24636;DHT22;12772;49.794;10.024;2023-05-20T12:56:31;25.60;31.30
24636;DHT22;12772;49.794;10.024;2023-05-20T13:00:34;25.60;32.00
24636;DHT22;12772;49.794;10.024;2023-05-20T13:04:36;25.60;32.20
24636;DHT22;12772;49.794;10.024;2023-05-20T13:08:38;25.70;32.10
24636;DHT22;12772;49.794;10.024;2023-05-20T13:12:40;25.70;31.40
24636;DHT22;12772;49.794;10.024;2023-05-20T13:16:46;25.70;31.60
24636;DHT22;12772;49.794;10.024;2023-05-20T13:20:48;25.70;31.40
24636;DHT22;12772;49.794;10.024;2023-05-20T13:24:50;25.70;32.40
24636;DHT22;12772;49.794;10.024;2023-05-20T13:28:52;25.70;33.00
24636;DHT22;12772;49.794;10.024;2023-05-20T13:32:54;25.80;32.00
24636;DHT22;12772;49.794;10.024;2023-05-20T13:36:56;25.90;32.10
24636;DHT22;12772;49.794;10.024;2023-05-20T13:40:58;26.00;31.90
24636;DHT22;12772;49.794;10.024;2023-05-20T13:45:01;26.00;31.30
24636;DHT22;12772;49.794;10.024;2023-05-20T13:49:03;25.90;30.80
24636;DHT22;12772;49.794;10.024;2023-05-20T13:53:05;25.90;31.30
24636;DHT22;12772;49.794;10.024;2023-05-20T13:57:12;25.80;31.70
24636;DHT22;12772;49.794;10.024;2023-05-20T14:01:14;25.80;30.60
24636;DHT22;12772;49.794;10.024;2023-05-20T14:05:16;25.70;31.50
24636;DHT22;12772;49.794;10.024;2023-05-20T14:09:18;25.70;31.70
24636;DHT22;12772;49.794;10.024;2023-05-20T14:13:21;25.70;33.00
24636;DHT22;12772;49.794;10.024;2023-05-20T14:17:23;25.70;31.90
24636;DHT22;12772;49.794;10.024;2023-05-20T14:21:25;25.80;31.80
24636;DHT22;12772;49.794;10.024;2023-05-20T14:25:27;25.70;31.40
24636;DHT22;12772;49.794;10.024;2023-05-20T14:29:29;25.70;31.50
24636;DHT22;12772;49.794;10.024;2023-05-20T14:33:31;25.70;31.90
24636;DHT22;12772;49.794;10.024;2023-05-20T14:37:34;25.80;32.40
24636;DHT22;12772;49.794;10.024;2023-05-20T14:41:36;25.80;31.60
24636;DHT22;12772;49.794;10.024;2023-05-20T14:45:38;25.80;31.70
24636;DHT22;12772;49.794;10.024;2023-05-20T14:49:40;25.80;31.40
24636;DHT22;12772;49.794;10.024;2023-05-20T14:53:42;25.70;31.70
24636;DHT22;12772;49.794;10.024;2023-05-20T14:57:44;25.70;31.50
24636;DHT22;12772;49.794;10.024;2023-05-20T15:01:47;25.60;32.00
24636;DHT22;12772;49.794;10.024;2023-05-20T15:05:49;25.60;31.50
24636;DHT22;12772;49.794;10.024;2023-05-20T15:09:51;25.50;31.90
24636;DHT22;12772;49.794;10.024;2023-05-20T15:13:53;25.50;31.10
24636;DHT22;12772;49.794;10.024;2023-05-20T15:17:55;25.40;30.90
24636;DHT22;12772;49.794;10.024;2023-05-20T15:21:57;25.40;30.70
24636;DHT22;12772;49.794;10.024;2023-05-20T15:26:00;25.30;30.20
24636;DHT22;12772;49.794;10.024;2023-05-20T15:30:02;25.20;30.30
24636;DHT22;12772;49.794;10.024;2023-05-20T15:34:04;25.10;30.80
24636;DHT22;12772;49.794;10.024;2023-05-20T15:38:09;25.00;31.90
24636;DHT22;12772;49.794;10.024;2023-05-20T15:42:13;25.00;32.40
24636;DHT22;12772;49.794;10.024;2023-05-20T15:46:18;24.90;31.50
24636;DHT22;12772;49.794;10.024;2023-05-20T15:50:20;24.90;32.00
24636;DHT22;12772;49.794;10.024;2023-05-20T15:54:23;24.90;32.30
24636;DHT22;12772;49.794;10.024;2023-05-20T15:58:25;24.90;32.30
24636;DHT22;12772;49.794;10.024;2023-05-20T16:02:27;24.90;32.30
24636;DHT22;12772;49.794;10.024;2023-05-20T16:06:30;24.90;32.30
24636;DHT22;12772;49.794;10.024;2023-05-20T16:10:34;24.90;32.70
24636;DHT22;12772;49.794;10.024;2023-05-20T16:14:36;25.00;32.40
24636;DHT22;12772;49.794;10.024;2023-05-20T16:18:38;25.10;32.40
24636;DHT22;12772;49.794;10.024;2023-05-20T16:22:40;25.20;32.60
24636;DHT22;12772;49.794;10.024;2023-05-20T16:26:45;25.30;32.70
24636;DHT22;12772;49.794;10.024;2023-05-20T16:30:47;25.30;32.60
24636;DHT22;12772;49.794;10.024;2023-05-20T16:34:49;25.40;32.70
24636;DHT22;12772;49.794;10.024;2023-05-20T16:38:51;25.30;33.80
24636;DHT22;12772;49.794;10.024;2023-05-20T16:42:53;25.10;34.60
24636;DHT22;12772;49.794;10.024;2023-05-20T16:46:55;25.00;35.20
24636;DHT22;12772;49.794;10.024;2023-05-20T16:50:57;24.80;35.70
24636;DHT22;12772;49.794;10.024;2023-05-20T16:54:59;24.70;36.10
24636;DHT22;12772;49.794;10.024;2023-05-20T16:59:03;24.60;36.70
24636;DHT22;12772;49.794;10.024;2023-05-20T17:03:05;24.50;37.30
24636;DHT22;12772;49.794;10.024;2023-05-20T17:07:07;24.50;37.80
24636;DHT22;12772;49.794;10.024;2023-05-20T17:11:11;24.40;37.50
24636;DHT22;12772;49.794;10.024;2023-05-20T17:15:13;24.30;37.90
24636;DHT22;12772;49.794;10.024;2023-05-20T17:19:15;24.30;38.20
24636;DHT22;12772;49.794;10.024;2023-05-20T17:23:17;24.20;38.70
24636;DHT22;12772;49.794;10.024;2023-05-20T17:27:19;24.10;38.70
24636;DHT22;12772;49.794;10.024;2023-05-20T17:31:21;24.00;38.60
24636;DHT22;12772;49.794;10.024;2023-05-20T17:35:23;23.90;38.60
24636;DHT22;12772;49.794;10.024;2023-05-20T17:39:26;23.80;39.20
24636;DHT22;12772;49.794;10.024;2023-05-20T17:43:28;23.80;39.40
24636;DHT22;12772;49.794;10.024;2023-05-20T17:47:30;23.70;39.50
24636;DHT22;12772;49.794;10.024;2023-05-20T17:51:32;23.60;39.60
24636;DHT22;12772;49.794;10.024;2023-05-20T17:55:34;23.60;39.80
24636;DHT22;12772;49.794;10.024;2023-05-20T17:59:36;23.50;39.80
24636;DHT22;12772;49.794;10.024;2023-05-20T18:03:41;23.40;40.20
24636;DHT22;12772;49.794;10.024;2023-05-20T18:07:46;23.40;40.50
24636;DHT22;12772;49.794;10.024;2023-05-20T18:11:48;23.30;40.50
24636;DHT22;12772;49.794;10.024;2023-05-20T18:15:50;23.20;40.90
24636;DHT22;12772;49.794;10.024;2023-05-20T18:19:52;23.10;41.20
24636;DHT22;12772;49.794;10.024;2023-05-20T18:23:55;23.00;41.30
24636;DHT22;12772;49.794;10.024;2023-05-20T18:27:57;22.90;41.40
24636;DHT22;12772;49.794;10.024;2023-05-20T18:32:01;22.90;41.90
24636;DHT22;12772;49.794;10.024;2023-05-20T18:36:03;22.80;42.10
24636;DHT22;12772;49.794;10.024;2023-05-20T18:40:07;22.70;42.40
24636;DHT22;12772;49.794;10.024;2023-05-20T18:44:10;22.60;42.60
24636;DHT22;12772;49.794;10.024;2023-05-20T18:48:12;22.60;43.10
24636;DHT22;12772;49.794;10.024;2023-05-20T18:52:14;22.50;43.30
24636;DHT22;12772;49.794;10.024;2023-05-20T18:56:16;22.40;43.40
24636;DHT22;12772;49.794;10.024;2023-05-20T19:00:18;22.40;43.60
24636;DHT22;12772;49.794;10.024;2023-05-20T19:04:21;22.40;43.60
24636;DHT22;12772;49.794;10.024;2023-05-20T19:08:23;22.30;43.80
24636;DHT22;12772;49.794;10.024;2023-05-20T19:12:27;22.30;43.80
24636;DHT22;12772;49.794;10.024;2023-05-20T19:16:29;22.20;43.70
24636;DHT22;12772;49.794;10.024;2023-05-20T19:20:32;22.20;43.70
24636;DHT22;12772;49.794;10.024;2023-05-20T19:24:35;22.10;43.60
24636;DHT22;12772;49.794;10.024;2023-05-20T19:28:37;22.10;43.60
24636;DHT22;12772;49.794;10.024;2023-05-20T19:32:39;22.00;43.50
24636;DHT22;12772;49.794;10.024;2023-05-20T19:36:42;21.90;43.40
24636;DHT22;12772;49.794;10.024;2023-05-20T19:40:44;21.70;43.60
24636;DHT22;12772;49.794;10.024;2023-05-20T19:44:47;21.70;44.10
24636;DHT22;12772;49.794;10.024;2023-05-20T19:48:50;21.70;44.30
24636;DHT22;12772;49.794;10.024;2023-05-20T19:52:52;21.60;44.40
24636;DHT22;12772;49.794;10.024;2023-05-20T19:56:54;21.50;44.60
24636;DHT22;12772;49.794;10.024;2023-05-20T20:00:56;21.50;44.80
24636;DHT22;12772;49.794;10.024;2023-05-20T20:04:58;21.50;45.20
24636;DHT22;12772;49.794;10.024;2023-05-20T20:09:00;21.30;45.30
24636;DHT22;12772;49.794;10.024;2023-05-20T20:13:02;21.30;45.20
24636;DHT22;12772;49.794;10.024;2023-05-20T20:17:04;21.30;45.40
24636;DHT22;12772;49.794;10.024;2023-05-20T20:21:07;21.20;45.50
24636;DHT22;12772;49.794;10.024;2023-05-20T20:25:10;21.20;45.80
24636;DHT22;12772;49.794;10.024;2023-05-20T20:29:14;21.10;45.80
24636;DHT22;12772;49.794;10.024;2023-05-20T20:33:16;21.10;46.20
24636;DHT22;12772;49.794;10.024;2023-05-20T20:37:18;21.00;46.20
24636;DHT22;12772;49.794;10.024;2023-05-20T20:41:22;20.90;46.40
24636;DHT22;12772;49.794;10.024;2023-05-20T20:45:24;20.90;46.70
24636;DHT22;12772;49.794;10.024;2023-05-20T20:49:26;20.90;47.00
24636;DHT22;12772;49.794;10.024;2023-05-20T20:53:28;20.80;47.00
24636;DHT22;12772;49.794;10.024;2023-05-20T20:57:30;20.80;47.20
24636;DHT22;12772;49.794;10.024;2023-05-20T21:01:34;20.80;47.30
24636;DHT22;12772;49.794;10.024;2023-05-20T21:05:37;20.80;47.50
24636;DHT22;12772;49.794;10.024;2023-05-20T21:09:39;20.80;47.60
24636;DHT22;12772;49.794;10.024;2023-05-20T21:13:41;20.80;47.60
24636;DHT22;12772;49.794;10.024;2023-05-20T21:17:43;20.80;47.80
24636;DHT22;12772;49.794;10.024;2023-05-20T21:21:45;20.70;47.90
24636;DHT22;12772;49.794;10.024;2023-05-20T21:25:49;20.60;47.80
24636;DHT22;12772;49.794;10.024;2023-05-20T21:29:51;20.60;47.90
24636;DHT22;12772;49.794;10.024;2023-05-20T21:33:53;20.60;48.10
24636;DHT22;12772;49.794;10.024;2023-05-20T21:37:55;20.60;48.70
24636;DHT22;12772;49.794;10.024;2023-05-20T21:41:57;20.60;48.10
24636;DHT22;12772;49.794;10.024;2023-05-20T21:45:59;20.60;48.10
24636;DHT22;12772;49.794;10.024;2023-05-20T21:50:01;20.60;48.40
24636;DHT22;12772;49.794;10.024;2023-05-20T21:54:03;20.50;48.20
24636;DHT22;12772;49.794;10.024;2023-05-20T21:58:05;20.50;48.40
24636;DHT22;12772;49.794;10.024;2023-05-20T22:02:07;20.50;48.80
24636;DHT22;12772;49.794;10.024;2023-05-20T22:06:10;20.40;48.60
24636;DHT22;12772;49.794;10.024;2023-05-20T22:10:13;20.30;49.00
24636;DHT22;12772;49.794;10.024;2023-05-20T22:14:17;20.30;49.30
24636;DHT22;12772;49.794;10.024;2023-05-20T22:18:19;20.30;49.40
24636;DHT22;12772;49.794;10.024;2023-05-20T22:22:22;20.30;49.40
24636;DHT22;12772;49.794;10.024;2023-05-20T22:26:24;20.30;49.40
24636;DHT22;12772;49.794;10.024;2023-05-20T22:30:26;20.30;49.20
24636;DHT22;12772;49.794;10.024;2023-05-20T22:34:28;20.30;49.40
24636;DHT22;12772;49.794;10.024;2023-05-20T22:38:30;20.30;49.60
24636;DHT22;12772;49.794;10.024;2023-05-20T22:42:32;20.30;49.80
24636;DHT22;12772;49.794;10.024;2023-05-20T22:46:34;20.20;49.90
24636;DHT22;12772;49.794;10.024;2023-05-20T22:50:36;20.20;50.10
24636;DHT22;12772;49.794;10.024;2023-05-20T22:54:38;20.10;50.30
24636;DHT22;12772;49.794;10.024;2023-05-20T22:58:40;20.10;50.50
24636;DHT22;12772;49.794;10.024;2023-05-20T23:02:42;20.00;50.50
24636;DHT22;12772;49.794;10.024;2023-05-20T23:06:49;20.00;50.60
24636;DHT22;12772;49.794;10.024;2023-05-20T23:10:53;20.00;50.70
24636;DHT22;12772;49.794;10.024;2023-05-20T23:14:55;20.00;50.90
24636;DHT22;12772;49.794;10.024;2023-05-20T23:18:57;20.00;50.90
24636;DHT22;12772;49.794;10.024;2023-05-20T23:22:59;20.00;50.90
24636;DHT22;12772;49.794;10.024;2023-05-20T23:27:01;20.00;51.10
24636;DHT22;12772;49.794;10.024;2023-05-20T23:31:04;20.00;51.20
24636;DHT22;12772;49.794;10.024;2023-05-20T23:35:06;20.00;51.00
24636;DHT22;12772;49.794;10.024;2023-05-20T23:39:11;20.00;51.00
24636;DHT22;12772;49.794;10.024;2023-05-20T23:43:13;20.00;50.90
24636;DHT22;12772;49.794;10.024;2023-05-20T23:47:15;20.00;50.90
24636;DHT22;12772;49.794;10.024;2023-05-20T23:51:18;20.00;50.90
24636;DHT22;12772;49.794;10.024;2023-05-20T23:55:20;20.00;51.10
24636;DHT22;12772;49.794;10.024;2023-05-20T23:59:22;20.00;51.00
